Terminal Aerodrome Forecast
Issued by NWS Mt. Holly, NJ

Home | Current Version | Previous Version | Text Only | Print | Product List | Glossary On
Versions: 1 2 3 4 5 6 7 8 9 10 11 12 13
000
FTUS41 KPHI 241721
TAFILG
TAF
KILG 241721Z 2418/2518 12006KT P6SM SKC
     FM242300 VRB02KT P6SM SKC
      TEMPO 2508/2511 4SM BR
     FM251400 05005KT P6SM FEW250=

USA.gov is the U.S. government's official web portal to all federal, state and local government web resources and services.